createdAt,value
2023-04-12T00:02:07.786Z,3.50
2023-04-12T00:04:39.429Z,6.20
2023-04-12T00:07:10.450Z,6.10
2023-04-12T00:09:41.439Z,3.70
2023-04-12T00:12:12.301Z,4.93
2023-04-12T00:14:43.182Z,5.97
2023-04-12T00:17:16.922Z,3.23
2023-04-12T00:19:50.172Z,6.00
2023-04-12T00:22:21.207Z,3.07
2023-04-12T00:24:52.043Z,5.30
2023-04-12T00:27:22.960Z,4.07
2023-04-12T00:29:53.918Z,5.30
2023-04-12T00:32:27.555Z,7.90
2023-04-12T00:34:58.482Z,3.97
2023-04-12T00:37:29.542Z,5.07
2023-04-12T00:40:00.500Z,2.50
2023-04-12T00:42:31.535Z,3.43
2023-04-12T00:45:02.348Z,5.43
2023-04-12T00:47:39.202Z,6.20
2023-04-12T00:50:11.788Z,4.77
2023-04-12T00:52:43.128Z,2.70
2023-04-12T00:55:14.016Z,7.23
2023-04-12T00:57:44.914Z,5.23
2023-04-12T01:00:17.591Z,5.33
2023-04-12T01:02:53.174Z,4.37
2023-04-12T01:05:27.249Z,3.30
2023-04-12T01:08:08.448Z,3.33
2023-04-12T01:10:48.980Z,3.97
2023-04-12T01:13:31.765Z,5.80
2023-04-12T01:16:10.042Z,5.07
2023-04-12T01:18:53.122Z,6.30
2023-04-12T01:21:34.032Z,5.00
2023-04-12T01:24:25.550Z,2.77
2023-04-12T01:27:00.890Z,4.50
2023-04-12T01:29:34.918Z,4.40
2023-04-12T01:32:06.854Z,4.17
2023-04-12T01:34:40.508Z,3.83
2023-04-12T01:37:12.427Z,3.37
2023-04-12T01:39:43.909Z,4.33
2023-04-12T01:42:14.791Z,4.17
2023-04-12T01:44:48.206Z,4.40
2023-04-12T01:47:19.342Z,3.73
2023-04-12T01:50:01.534Z,4.70
2023-04-12T01:52:35.188Z,2.10
2023-04-12T01:55:08.698Z,3.97
2023-04-12T01:57:46.749Z,5.20
2023-04-12T02:00:22.120Z,6.90
2023-04-12T02:02:53.918Z,3.37
2023-04-12T02:05:25.572Z,6.33
2023-04-12T02:07:56.637Z,4.90
2023-04-12T02:10:39.323Z,3.00
2023-04-12T02:13:10.275Z,5.50
2023-04-12T02:15:44.272Z,9.50
2023-04-12T02:18:17.053Z,3.10
2023-04-12T02:20:47.874Z,2.93
2023-04-12T02:23:18.751Z,6.03
2023-04-12T02:25:49.620Z,5.13
2023-04-12T02:28:23.504Z,3.50
2023-04-12T02:30:57.010Z,6.13
2023-04-12T02:33:28.361Z,2.97
2023-04-12T02:36:02.618Z,5.20
2023-04-12T02:38:33.615Z,3.40
2023-04-12T02:41:04.436Z,5.47
2023-04-12T02:43:35.761Z,4.30
2023-04-12T02:46:09.798Z,5.17
2023-04-12T02:48:43.219Z,4.10
2023-04-12T02:51:14.732Z,2.87
2023-04-12T02:53:45.844Z,4.40
2023-04-12T02:56:19.357Z,4.03
2023-04-12T02:58:50.362Z,6.03
2023-04-12T03:01:23.862Z,3.97
2023-04-12T03:03:55.106Z,4.53
2023-04-12T03:06:26.104Z,3.50
2023-04-12T03:08:57.811Z,3.60
2023-04-12T03:11:28.694Z,3.50
2023-04-12T03:13:59.671Z,4.10
2023-04-12T03:16:33.103Z,3.27
2023-04-12T03:19:04.412Z,2.97
2023-04-12T03:21:36.165Z,2.53
2023-04-12T03:24:07.804Z,2.73
2023-04-12T03:26:38.940Z,4.80
2023-04-12T03:29:11.321Z,2.47
2023-04-12T03:31:45.107Z,6.07
2023-04-12T03:34:16.468Z,3.13
2023-04-12T03:36:47.611Z,4.90
2023-04-12T03:39:19.814Z,4.37
2023-04-12T03:41:53.649Z,3.03
2023-04-12T03:44:26.300Z,2.43
2023-04-12T03:46:59.838Z,2.40
2023-04-12T03:49:30.751Z,1.80
2023-04-12T03:52:02.209Z,4.63
2023-04-12T03:54:33.583Z,3.63
2023-04-12T03:57:04.629Z,3.30
2023-04-12T03:59:38.534Z,2.33
2023-04-12T04:02:12.364Z,1.50
2023-04-12T04:04:43.335Z,1.70
2023-04-12T04:07:14.743Z,4.10
2023-04-12T04:09:45.998Z,2.10
2023-04-12T04:12:16.930Z,6.10
2023-04-12T04:14:48.168Z,5.50
2023-04-12T04:17:24.628Z,7.50
2023-04-12T04:20:00.933Z,2.73
2023-04-12T04:22:32.671Z,2.63
2023-04-12T04:25:04.186Z,2.27
2023-04-12T04:27:38.661Z,1.70
2023-04-12T04:30:12.019Z,4.90
2023-04-12T04:32:46.234Z,4.53
2023-04-12T04:35:18.046Z,3.37
2023-04-12T04:37:48.986Z,4.17
2023-04-12T04:40:21.441Z,3.83
2023-04-12T04:42:54.785Z,2.53
2023-04-12T04:45:26.716Z,3.10
2023-04-12T04:48:01.465Z,3.60
2023-04-12T04:50:32.538Z,4.63
2023-04-12T04:53:03.530Z,2.33
2023-04-12T04:55:37.722Z,3.20
2023-04-12T04:58:08.916Z,2.30
2023-04-12T05:00:39.823Z,2.80
2023-04-12T05:03:13.470Z,2.20
2023-04-12T05:05:44.514Z,3.00
2023-04-12T05:08:15.813Z,1.87
2023-04-12T05:10:47.023Z,2.80
2023-04-12T05:13:17.925Z,1.80
2023-04-12T05:15:48.879Z,5.90
2023-04-12T05:18:22.556Z,1.70
2023-04-12T05:20:53.410Z,1.70
2023-04-12T05:23:24.613Z,2.10
2023-04-12T05:25:55.852Z,1.73
2023-04-12T05:28:26.862Z,1.70
2023-04-12T05:30:57.960Z,2.37
2023-04-12T05:33:33.420Z,2.80
2023-04-12T05:36:04.527Z,2.93
2023-04-12T05:38:35.465Z,2.70
2023-04-12T05:41:07.358Z,2.00
2023-04-12T05:43:38.426Z,2.23
2023-04-12T05:46:09.739Z,3.43
2023-04-12T05:48:43.316Z,2.03
2023-04-12T05:51:14.425Z,3.77
2023-04-12T05:53:45.447Z,2.53
2023-04-12T05:56:16.932Z,5.07
2023-04-12T05:58:48.369Z,2.07
2023-04-12T06:01:20.036Z,2.63
2023-04-12T06:03:54.482Z,1.60
2023-04-12T06:06:30.463Z,2.07
2023-04-12T06:09:02.988Z,2.03
2023-04-12T06:11:34.681Z,3.33
2023-04-12T06:14:05.799Z,2.67
2023-04-12T06:16:40.661Z,1.57
2023-04-12T06:19:15.507Z,1.90
2023-04-12T06:21:47.002Z,3.83
2023-04-12T06:24:18.203Z,3.40
2023-04-12T06:26:49.152Z,2.63
2023-04-12T06:29:20.217Z,1.53
2023-04-12T06:31:51.487Z,1.30
2023-04-12T06:34:25.275Z,1.50
2023-04-12T06:36:57.510Z,1.80
2023-04-12T06:39:28.565Z,1.70
2023-04-12T06:42:01.683Z,2.03
2023-04-12T06:44:33.679Z,2.17
2023-04-12T06:47:04.679Z,3.00
2023-04-12T06:49:38.495Z,2.30
2023-04-12T06:52:09.581Z,2.60
2023-04-12T06:54:41.020Z,1.70
2023-04-12T06:57:13.576Z,1.23
2023-04-12T06:59:44.588Z,1.43
2023-04-12T07:02:16.100Z,1.87
2023-04-12T07:04:49.787Z,1.33
2023-04-12T07:07:20.930Z,3.63
2023-04-12T07:09:52.587Z,1.87
2023-04-12T07:12:23.681Z,2.03
2023-04-12T07:14:54.658Z,1.37
2023-04-12T07:17:27.236Z,1.23
2023-04-12T07:20:01.127Z,1.10
2023-04-12T07:22:32.172Z,1.17
2023-04-12T07:25:03.083Z,4.50
2023-04-12T07:27:34.033Z,3.23
2023-04-12T07:30:05.012Z,1.13
2023-04-12T07:32:35.948Z,3.97
2023-04-12T07:35:12.238Z,2.70
2023-04-12T07:37:43.400Z,0.90
2023-04-12T07:40:14.767Z,1.00
2023-04-12T07:42:45.934Z,2.20
2023-04-12T07:45:16.838Z,1.53
2023-04-12T07:47:47.937Z,3.20
2023-04-12T07:50:21.704Z,1.87
2023-04-12T07:52:52.977Z,1.27
2023-04-12T07:55:25.074Z,3.60
2023-04-12T07:57:55.967Z,1.03
2023-04-12T08:00:27.149Z,0.70
2023-04-12T08:02:58.154Z,0.67
2023-04-12T08:05:32.029Z,0.70
2023-04-12T08:08:03.128Z,1.10
2023-04-12T08:10:34.194Z,1.80
2023-04-12T08:13:05.151Z,0.70
2023-04-12T08:15:36.335Z,1.20
2023-04-12T08:18:07.814Z,0.97
2023-04-12T08:20:44.332Z,0.73
2023-04-12T08:23:15.839Z,0.83
2023-04-12T08:25:46.811Z,0.67
2023-04-12T08:28:18.142Z,1.20
2023-04-12T08:30:49.120Z,1.53
2023-04-12T08:33:20.016Z,1.23
2023-04-12T08:35:53.523Z,0.50
2023-04-12T08:38:30.986Z,0.67
2023-04-12T08:41:11.797Z,1.37
2023-04-12T08:43:49.330Z,1.57
2023-04-12T08:46:20.726Z,0.80
2023-04-12T08:48:54.303Z,1.33
2023-04-12T08:51:32.361Z,0.80
2023-04-12T08:54:03.316Z,1.43
2023-04-12T08:56:35.170Z,2.10
2023-04-12T08:59:07.169Z,1.23
2023-04-12T09:01:39.049Z,1.10
2023-04-12T09:04:10.971Z,1.00
2023-04-12T09:06:44.678Z,1.23
2023-04-12T09:09:15.760Z,1.03
2023-04-12T09:11:47.014Z,0.50
2023-04-12T09:14:25.732Z,1.73
2023-04-12T09:16:56.678Z,1.33
2023-04-12T09:19:41.137Z,1.17
2023-04-12T09:22:14.706Z,0.70
2023-04-12T09:24:54.971Z,0.70
2023-04-12T09:27:30.234Z,0.60
2023-04-12T09:30:20.107Z,0.70
2023-04-12T09:32:55.019Z,2.10
2023-04-12T09:35:37.390Z,0.70
2023-04-12T09:38:13.652Z,0.90
2023-04-12T09:40:44.743Z,0.93
2023-04-12T09:43:15.968Z,0.70
2023-04-12T09:45:46.898Z,1.20
2023-04-12T09:48:26.552Z,0.63
2023-04-12T09:51:02.517Z,2.83
2023-04-12T09:53:38.115Z,0.83
2023-04-12T09:56:15.878Z,1.30
2023-04-12T09:58:48.854Z,1.10
2023-04-12T10:01:24.123Z,2.40
2023-04-12T10:03:55.664Z,1.00
2023-04-12T10:06:27.048Z,0.83
2023-04-12T10:09:03.913Z,0.80
2023-04-12T10:11:35.449Z,0.97
2023-04-12T10:14:06.895Z,1.00
2023-04-12T10:16:38.371Z,0.70
2023-04-12T10:19:10.465Z,1.03
2023-04-12T10:21:42.366Z,1.13
2023-04-12T10:24:17.535Z,1.30
2023-04-12T10:26:50.426Z,0.93
2023-04-12T10:29:33.923Z,1.40
2023-04-12T10:32:23.324Z,1.80
2023-04-12T10:34:56.305Z,2.97
2023-04-12T10:38:04.506Z,1.03
2023-04-12T10:40:36.483Z,1.50
2023-04-12T10:43:32.426Z,0.70
2023-04-12T10:46:05.238Z,1.60
2023-04-12T10:48:37.836Z,2.43
2023-04-12T10:51:26.853Z,1.77
2023-04-12T10:54:31.250Z,1.47
2023-04-12T10:57:06.154Z,1.90
2023-04-12T10:59:57.115Z,0.80
2023-04-12T11:02:28.346Z,1.40
2023-04-12T11:05:08.976Z,0.87
2023-04-12T11:07:45.175Z,0.77
2023-04-12T11:10:21.833Z,0.70
2023-04-12T11:12:55.442Z,1.23
2023-04-12T11:15:30.766Z,1.17
2023-04-12T11:18:01.900Z,1.00
2023-04-12T11:20:33.581Z,1.00
2023-04-12T11:23:06.026Z,1.43
2023-04-12T11:25:43.439Z,1.37
2023-04-12T11:28:28.700Z,1.00
2023-04-12T11:31:01.395Z,2.37
2023-04-12T11:33:37.272Z,2.77
2023-04-12T11:36:10.088Z,1.43
2023-04-12T11:38:43.014Z,1.30
2023-04-12T11:41:18.697Z,2.10
2023-04-12T11:43:51.303Z,1.40
2023-04-12T11:46:22.437Z,1.73
2023-04-12T11:48:53.966Z,1.70
2023-04-12T11:51:31.561Z,1.50
2023-04-12T11:54:04.803Z,1.57
2023-04-12T11:56:38.656Z,1.50
2023-04-12T11:59:10.053Z,1.97
2023-04-12T12:01:41.398Z,2.13
2023-04-12T12:04:12.618Z,2.17
2023-04-12T12:06:44.174Z,2.40
2023-04-12T12:09:16.218Z,2.93
2023-04-12T12:11:50.124Z,2.27
2023-04-12T12:14:25.430Z,2.83
2023-04-12T12:16:57.792Z,3.50
2023-04-12T12:19:34.059Z,2.80
2023-04-12T12:22:17.306Z,2.30
2023-04-12T12:24:50.268Z,4.13
2023-04-12T12:27:25.977Z,3.50
2023-04-12T12:29:59.190Z,3.63
2023-04-12T12:32:35.079Z,1.70
2023-04-12T12:35:12.152Z,1.97
2023-04-12T12:37:52.632Z,1.80
2023-04-12T12:40:32.853Z,2.03
2023-04-12T12:43:07.026Z,4.37
2023-04-12T12:45:39.052Z,2.97
2023-04-12T12:48:10.126Z,2.30
2023-04-12T12:50:41.113Z,1.97
2023-04-12T12:53:12.046Z,1.83
2023-04-12T12:55:43.015Z,2.80
2023-04-12T12:58:16.569Z,1.30
2023-04-12T13:00:47.494Z,2.53
2023-04-12T13:03:18.729Z,2.70
2023-04-12T13:05:49.865Z,3.13
2023-04-12T13:08:20.818Z,4.00
2023-04-12T13:10:52.312Z,3.03
2023-04-12T13:13:26.101Z,5.30
2023-04-12T13:15:57.034Z,2.70
2023-04-12T13:18:27.932Z,4.10
2023-04-12T13:20:58.816Z,4.30
2023-04-12T13:23:30.015Z,2.57
2023-04-12T13:26:00.869Z,4.30
2023-04-12T13:28:34.316Z,3.20
2023-04-12T13:31:05.260Z,4.37
2023-04-12T13:33:36.271Z,3.27
2023-04-12T13:36:07.810Z,2.97
2023-04-12T13:38:41.330Z,5.40
2023-04-12T13:41:12.199Z,4.77
2023-04-12T13:43:45.785Z,4.90
2023-04-12T13:46:16.739Z,3.83
2023-04-12T13:48:47.725Z,3.00
2023-04-12T13:51:18.591Z,4.07
2023-04-12T13:53:49.604Z,3.83
2023-04-12T13:56:20.913Z,3.40
2023-04-12T13:58:54.535Z,5.07
2023-04-12T14:01:26.121Z,3.90
2023-04-12T14:03:57.223Z,5.00
2023-04-12T14:06:28.098Z,5.53
2023-04-12T14:08:59.348Z,5.70
2023-04-12T14:11:30.551Z,5.63
2023-04-12T14:14:04.173Z,5.23
2023-04-12T14:16:35.113Z,6.23
2023-04-12T14:19:06.265Z,6.60
2023-04-12T14:21:37.745Z,4.57
2023-04-12T14:24:09.180Z,6.70
2023-04-12T14:26:41.198Z,3.93
2023-04-12T14:29:17.869Z,5.40
2023-04-12T14:31:52.073Z,5.23
2023-04-12T14:34:23.058Z,3.20
2023-04-12T14:36:54.017Z,3.80
2023-04-12T14:39:27.150Z,7.83
2023-04-12T14:41:58.157Z,4.33
2023-04-12T14:44:31.651Z,9.77
2023-04-12T14:47:02.575Z,5.50
2023-04-12T14:49:33.706Z,7.60
2023-04-12T14:52:04.636Z,4.43
2023-04-12T14:54:35.841Z,7.40
2023-04-12T14:57:07.027Z,6.93
2023-04-12T14:59:43.500Z,7.33
2023-04-12T15:02:14.511Z,3.93
2023-04-12T15:04:45.601Z,5.70
2023-04-12T15:07:16.521Z,7.60
2023-04-12T15:09:48.152Z,7.10
2023-04-12T15:12:19.087Z,8.20
2023-04-12T15:14:54.240Z,8.30
2023-04-12T15:17:25.267Z,7.17
2023-04-12T15:19:56.317Z,7.20
2023-04-12T15:22:27.380Z,5.13
2023-04-12T15:24:59.670Z,7.20
2023-04-12T15:27:31.197Z,9.50
2023-04-12T15:30:05.312Z,7.40
2023-04-12T15:32:39.209Z,7.23
2023-04-12T15:35:25.928Z,11.20
2023-04-12T15:37:57.814Z,7.20
2023-04-12T15:40:29.016Z,7.60
2023-04-12T15:43:00.237Z,8.53
2023-04-12T15:45:34.034Z,6.90
2023-04-12T15:48:04.924Z,7.47
2023-04-12T15:50:35.760Z,6.67
2023-04-12T15:53:06.667Z,6.77
2023-04-12T15:55:37.520Z,8.77
2023-04-12T15:58:08.861Z,7.17
2023-04-12T16:00:42.899Z,7.50
2023-04-12T16:03:18.015Z,9.77
2023-04-12T16:05:49.998Z,10.13
2023-04-12T16:08:20.889Z,6.83
2023-04-12T16:10:52.438Z,10.63
2023-04-12T16:13:23.737Z,11.73
2023-04-12T16:15:57.288Z,7.60
2023-04-12T16:18:31.085Z,8.40
2023-04-12T16:21:01.931Z,9.07
2023-04-12T16:23:33.875Z,4.07
2023-04-12T16:26:05.219Z,3.97
2023-04-12T16:28:39.461Z,3.33
2023-04-12T16:31:15.843Z,4.10
2023-04-12T16:33:47.010Z,3.50
2023-04-12T16:36:18.381Z,3.00
2023-04-12T16:38:49.536Z,4.50
2023-04-12T16:41:20.531Z,3.57
2023-04-12T16:43:53.875Z,3.00
2023-04-12T16:46:27.705Z,5.60
2023-04-12T16:48:59.691Z,5.00
2023-04-12T16:51:36.920Z,2.27
2023-04-12T16:54:08.571Z,3.10
2023-04-12T16:56:39.579Z,2.10
2023-04-12T16:59:10.992Z,3.13
2023-04-12T17:01:44.482Z,3.90
2023-04-12T17:04:15.770Z,8.20
2023-04-12T17:06:47.072Z,3.73
2023-04-12T17:09:17.986Z,2.50
2023-04-12T17:11:48.914Z,3.10
2023-04-12T17:14:19.920Z,2.10
2023-04-12T17:16:53.552Z,3.07
2023-04-12T17:19:24.442Z,2.50
2023-04-12T17:21:55.357Z,1.23
2023-04-12T17:24:26.610Z,1.00
2023-04-12T17:26:57.464Z,1.63
2023-04-12T17:29:28.433Z,1.60
2023-04-12T17:32:02.308Z,1.10
2023-04-12T17:34:33.957Z,1.33
2023-04-12T17:37:06.134Z,1.23
2023-04-12T17:39:37.377Z,1.70
2023-04-12T17:42:08.619Z,2.40
2023-04-12T17:44:39.502Z,2.37
2023-04-12T17:47:13.142Z,1.60
2023-04-12T17:49:44.239Z,1.63
2023-04-12T17:52:15.839Z,1.90
2023-04-12T17:54:47.217Z,2.07
2023-04-12T17:57:18.086Z,4.53
2023-04-12T17:59:49.443Z,2.30
2023-04-12T18:02:23.101Z,2.00
2023-04-12T18:04:54.202Z,1.70
2023-04-12T18:07:25.721Z,1.80
2023-04-12T18:09:56.589Z,4.13
2023-04-12T18:12:27.489Z,3.33
2023-04-12T18:14:58.911Z,2.33
2023-04-12T18:17:34.891Z,3.17
2023-04-12T18:20:09.736Z,6.67
2023-04-12T18:22:42.544Z,6.50
2023-04-12T18:25:14.539Z,4.63
2023-04-12T18:27:48.495Z,3.47
2023-04-12T18:30:20.041Z,3.37
2023-04-12T18:32:53.711Z,2.97
2023-04-12T18:35:24.632Z,3.17
2023-04-12T18:37:58.015Z,4.50
2023-04-12T18:40:28.958Z,4.00
2023-04-12T18:43:03.006Z,6.00
2023-04-12T18:45:33.849Z,6.80
2023-04-12T18:48:09.467Z,5.07
2023-04-12T18:50:41.582Z,6.37
2023-04-12T18:53:13.254Z,5.57
2023-04-12T18:55:44.358Z,4.57
2023-04-12T18:58:18.311Z,3.77
2023-04-12T19:00:49.781Z,3.20
2023-04-12T19:03:24.548Z,2.97
2023-04-12T19:05:57.391Z,2.97
2023-04-12T19:08:28.990Z,3.60
2023-04-12T19:11:00.124Z,2.57
2023-04-12T19:13:31.338Z,3.43
2023-04-12T19:16:02.651Z,5.77
2023-04-12T19:18:38.331Z,6.07
2023-04-12T19:21:09.510Z,4.33
2023-04-12T19:23:40.478Z,3.50
2023-04-12T19:26:11.575Z,5.00
2023-04-12T19:28:45.998Z,4.83
2023-04-12T19:31:17.689Z,4.93
2023-04-12T19:33:51.356Z,4.60
2023-04-12T19:36:24.605Z,4.30
2023-04-12T19:38:55.792Z,4.03
2023-04-12T19:41:26.758Z,3.13
2023-04-12T19:43:58.076Z,3.60
2023-04-12T19:46:29.187Z,3.60
2023-04-12T19:49:03.072Z,3.80
2023-04-12T19:51:34.777Z,4.53
2023-04-12T19:54:06.223Z,4.20
2023-04-12T19:56:37.790Z,3.50
2023-04-12T19:59:10.955Z,4.90
2023-04-12T20:01:48.202Z,3.70
2023-04-12T20:04:24.311Z,5.50
2023-04-12T20:06:56.090Z,6.80
2023-04-12T20:09:27.019Z,4.63
2023-04-12T20:11:58.614Z,6.47
2023-04-12T20:14:32.370Z,3.03
2023-04-12T20:17:06.101Z,10.67
2023-04-12T20:19:39.709Z,5.17
2023-04-12T20:22:10.571Z,4.27
2023-04-12T20:24:41.912Z,3.97
2023-04-12T20:27:16.853Z,2.97
2023-04-12T20:29:48.133Z,5.90
2023-04-12T20:32:19.229Z,4.40
2023-04-12T20:34:52.756Z,2.93
2023-04-12T20:37:23.780Z,3.10
2023-04-12T20:39:54.682Z,4.03
2023-04-12T20:42:25.640Z,2.80
2023-04-12T20:44:56.617Z,2.00
2023-04-12T20:47:30.724Z,1.57
2023-04-12T20:50:04.260Z,3.10
2023-04-12T20:52:35.168Z,6.80
2023-04-12T20:55:07.465Z,21.80
2023-04-12T20:57:40.456Z,28.17
2023-04-12T21:00:18.312Z,17.80
2023-04-12T21:02:49.577Z,38.37
2023-04-12T21:05:23.403Z,8.83
2023-04-12T21:07:54.835Z,7.60
2023-04-12T21:10:26.638Z,4.83
2023-04-12T21:13:01.841Z,4.47
2023-04-12T21:15:35.599Z,3.23
2023-04-12T21:18:06.806Z,3.10
2023-04-12T21:20:42.041Z,4.50
2023-04-12T21:23:13.661Z,4.43
2023-04-12T21:25:45.504Z,6.13
2023-04-12T21:28:19.052Z,3.70
2023-04-12T21:30:55.149Z,11.00
2023-04-12T21:33:27.367Z,12.67
2023-04-12T21:36:01.477Z,3.83
2023-04-12T21:38:32.420Z,3.23
2023-04-12T21:41:09.380Z,3.63
2023-04-12T21:43:40.665Z,2.97
2023-04-12T21:46:12.489Z,3.03
2023-04-12T21:48:43.434Z,1.70
2023-04-12T21:51:17.058Z,4.50
2023-04-12T21:53:48.056Z,1.73
2023-04-12T21:56:19.107Z,1.93
2023-04-12T21:58:50.176Z,2.57
2023-04-12T22:01:21.202Z,2.87
2023-04-12T22:03:53.106Z,2.20
2023-04-12T22:06:27.133Z,1.63
2023-04-12T22:09:02.000Z,1.70
2023-04-12T22:11:33.529Z,2.50
2023-04-12T22:14:04.492Z,2.40
2023-04-12T22:16:35.649Z,0.97
2023-04-12T22:19:06.548Z,3.43
2023-04-12T22:21:40.212Z,1.90
2023-04-12T22:24:12.236Z,7.53
2023-04-12T22:26:44.802Z,4.07
2023-04-12T22:29:17.826Z,1.80
2023-04-12T22:31:48.779Z,5.77
2023-04-12T22:34:19.664Z,1.50
2023-04-12T22:36:58.726Z,1.73
2023-04-12T22:39:30.325Z,4.40
2023-04-12T22:42:01.975Z,2.43
2023-04-12T22:44:38.501Z,1.87
2023-04-12T22:47:10.412Z,1.03
2023-04-12T22:49:50.531Z,1.30
2023-04-12T22:52:24.583Z,1.30
2023-04-12T22:54:55.462Z,1.17
2023-04-12T22:57:26.561Z,3.50
2023-04-12T22:59:57.764Z,1.67
2023-04-12T23:02:28.717Z,1.20
2023-04-12T23:04:59.641Z,1.43
2023-04-12T23:07:33.972Z,2.53
2023-04-12T23:10:05.263Z,1.83
2023-04-12T23:12:37.484Z,2.37
2023-04-12T23:15:09.905Z,1.70
2023-04-12T23:17:40.791Z,1.50
2023-04-12T23:20:13.553Z,2.10
2023-04-12T23:22:58.425Z,1.40
2023-04-12T23:25:39.510Z,1.50
2023-04-12T23:28:15.188Z,3.07
2023-04-12T23:30:50.203Z,1.17
2023-04-12T23:33:22.826Z,1.10
2023-04-12T23:35:56.157Z,3.10
2023-04-12T23:38:32.760Z,1.00
2023-04-12T23:41:04.533Z,3.60
2023-04-12T23:43:36.432Z,1.10
2023-04-12T23:46:08.439Z,1.27
2023-04-12T23:48:39.551Z,0.70
2023-04-12T23:51:11.197Z,2.03
2023-04-12T23:53:45.325Z,1.47
2023-04-12T23:56:16.545Z,0.70
2023-04-12T23:58:47.895Z,0.70
